Terminal Aerodrome Forecast
Issued by NWS

Home | Current Version | Previous Version | Text Only | Print | Product List | Glossary On
Versions: 1 2 3 4 5 6 7 8 9 10 11 12 13 14 15 16 17 18
135
FTUS43 KABR 191734
TAFPIR
TAF
KPIR 191734Z 1918/2018 17004KT P6SM FEW200
     FM200000 13005KT 5SM BR FEW120
     FM200600 15005KT 2SM BR SCT120
     FM201600 VRB05KT P6SM SCT150=

USA.gov is the U.S. government's official web portal to all federal, state and local government web resources and services.